Time;durP1;ratioP1;P1;durP2;ratioP2;P2;SDS_P1;SDS_P2;PMS_P1;PMS_P2;Temp;Humidity;BMP_temperature;BMP_pressure;BME280_temperature;BME280_humidity;BME280_pressure;Samples;Min_cycle;Max_cycle;Signal;HPM_P1;HPM_P2
2023/01/20 00:00:02;;;;;;;;;39.00;27.00;;;;;2.04;88.22;100951.06;5139238;27;45488;-69
2023/01/20 00:02:28;;;;;;;;;29.33;25.67;;;;;1.98;88.12;100934.53;5138810;27;47384;-68
2023/01/20 00:04:53;;;;;;;;;32.67;25.00;;;;;1.99;87.38;100942.34;5138864;27;45436;-69
2023/01/20 00:07:19;;;;;;;;;28.33;26.67;;;;;1.96;87.10;100941.41;5138931;27;45408;-69
2023/01/20 00:09:44;;;;;;;;;36.33;29.67;;;;;1.97;88.21;100945.75;5138886;27;45382;-69
2023/01/20 00:12:09;;;;;;;;;32.00;29.33;;;;;1.92;88.70;100951.75;5138597;27;46184;-69
2023/01/20 00:14:35;;;;;;;;;33.67;24.00;;;;;1.82;87.66;100938.59;5137151;27;45263;-69
2023/01/20 00:17:00;;;;;;;;;28.00;23.33;;;;;1.91;88.01;100951.72;5139010;27;45436;-69
2023/01/20 00:19:26;;;;;;;;;27.33;24.00;;;;;1.79;88.38;100942.00;5139137;27;45394;-69
2023/01/20 00:21:52;;;;;;;;;35.33;23.67;;;;;1.79;87.84;100936.81;5138643;27;47326;-69
2023/01/20 00:24:17;;;;;;;;;35.33;29.00;;;;;1.80;88.39;100956.75;5138703;27;45528;-69
2023/01/20 00:26:43;;;;;;;;;31.33;28.33;;;;;1.71;87.72;100936.72;5138839;27;45251;-69
2023/01/20 00:29:09;;;;;;;;;33.00;22.67;;;;;1.76;88.17;100949.75;5137296;27;45441;-69
2023/01/20 00:31:35;;;;;;;;;39.33;27.33;;;;;1.73;88.45;100952.31;5138578;27;45998;-68
2023/01/20 00:34:01;;;;;;;;;32.00;25.00;;;;;1.73;87.48;100953.16;5138451;27;45212;-69
2023/01/20 00:36:29;;;;;;;;;37.00;26.67;;;;;1.68;88.06;100956.53;5136937;27;45385;-69
2023/01/20 00:38:55;;;;;;;;;32.33;25.00;;;;;1.63;88.36;100951.28;5136880;27;45508;-69
2023/01/20 00:41:21;;;;;;;;;30.00;26.67;;;;;1.62;88.09;100959.88;5138312;27;46176;-69
2023/01/20 00:43:46;;;;;;;;;33.00;21.67;;;;;1.52;89.05;100957.97;5138401;27;45259;-69
2023/01/20 00:46:11;;;;;;;;;37.00;24.67;;;;;1.56;88.26;100955.47;5138597;27;45466;-69
2023/01/20 00:48:37;;;;;;;;;29.33;19.33;;;;;1.51;88.74;100958.81;5138935;27;45409;-69
2023/01/20 00:51:05;;;;;;;;;39.00;26.33;;;;;1.23;87.75;100915.97;5138386;27;45416;-69
2023/01/20 00:53:31;;;;;;;;;40.67;31.00;;;;;1.46;89.48;100966.53;5136883;27;45411;-69
2023/01/20 00:55:56;;;;;;;;;28.67;25.67;;;;;1.47;88.58;100967.44;5136756;27;45396;-69
2023/01/20 00:58:21;;;;;;;;;43.33;28.67;;;;;1.42;89.74;100964.72;5138557;27;45434;-69
2023/01/20 01:00:48;;;;;;;;;37.33;25.67;;;;;1.43;89.83;100963.03;5138312;27;45938;-69
2023/01/20 01:03:14;;;;;;;;;31.00;29.33;;;;;1.35;88.79;100965.47;5138325;27;45361;-69
2023/01/20 01:05:39;;;;;;;;;32.67;26.67;;;;;1.35;89.28;100965.47;5138328;27;45331;-69
2023/01/20 01:08:04;;;;;;;;;37.00;26.00;;;;;1.23;88.49;100955.72;5138122;27;45813;-69
2023/01/20 01:10:30;;;;;;;;;40.00;31.33;;;;;1.21;90.14;100971.25;5138145;27;45392;-69
2023/01/20 01:12:58;;;;;;;;;33.67;27.67;;;;;1.26;90.73;100989.50;5136536;27;45593;-68
2023/01/20 01:15:23;;;;;;;;;35.33;28.33;;;;;1.27;90.56;100991.25;5138369;27;45212;-69
2023/01/20 01:17:49;;;;;;;;;31.00;25.33;;;;;1.28;89.64;100985.25;5138171;27;45469;-69
2023/01/20 01:20:14;;;;;;;;;34.67;28.00;;;;;1.28;89.65;100994.72;5137940;27;46471;-69
2023/01/20 01:22:39;;;;;;;;;31.33;26.00;;;;;1.26;90.18;100991.22;5138852;27;45466;-69
2023/01/20 01:25:05;;;;;;;;;28.67;25.33;;;;;1.30;89.56;100993.91;5141561;27;45222;-69
2023/01/20 01:27:31;;;;;;;;;28.33;21.00;;;;;1.07;88.89;100945.91;5140295;27;45275;-69
2023/01/20 01:29:56;;;;;;;;;31.33;25.33;;;;;1.21;88.83;100985.97;5141272;27;45920;-69
2023/01/20 01:32:22;;;;;;;;;46.00;34.00;;;;;1.28;88.51;101002.50;5141323;27;45431;-69
2023/01/20 01:34:47;;;;;;;;;40.33;31.33;;;;;1.18;89.55;101004.06;5141587;27;45661;-69
2023/01/20 01:37:13;;;;;;;;;34.00;27.00;;;;;1.15;89.83;100996.22;5141781;27;45362;-69
2023/01/20 01:39:38;;;;;;;;;40.00;33.00;;;;;1.12;89.95;100996.13;5140963;27;45496;-68
2023/01/20 01:42:15;;;;;;;;;29.00;27.00;;;;;1.24;89.03;101024.06;5139383;27;45538;-69
2023/01/20 01:45:11;;;;;;;;;30.00;28.33;;;;;1.21;88.98;101024.88;5141419;27;45440;-69
2023/01/20 01:48:09;;;;;;;;;35.00;30.33;;;;;1.10;89.19;101032.41;5141435;27;45303;-69
2023/01/20 01:50:37;;;;;;;;;39.67;30.00;;;;;1.15;90.43;101040.31;5056674;28;46267;-69
2023/01/20 01:53:04;;;;;;;;;43.67;31.67;;;;;1.15;89.96;101041.19;5056871;28;45440;-68
2023/01/20 01:55:34;;;;;;;;;43.33;34.33;;;;;1.18;89.98;101037.78;5056572;28;45416;-68
2023/01/20 01:58:03;;;;;;;;;38.67;28.33;;;;;1.08;89.54;101015.09;5055134;28;45440;-68
2023/01/20 02:00:29;;;;;;;;;34.33;29.00;;;;;1.20;89.52;101034.34;5056628;28;46227;-69
2023/01/20 02:02:55;;;;;;;;;36.67;28.00;;;;;1.24;89.89;101034.44;5056521;28;45520;-69
2023/01/20 02:05:23;;;;;;;;;28.67;23.67;;;;;1.26;88.92;101038.78;5056600;28;45444;-69
2023/01/20 02:07:49;;;;;;;;;30.33;24.00;;;;;1.24;89.50;101039.63;5051240;28;45522;-69
2023/01/20 02:10:15;;;;;;;;;30.33;25.00;;;;;1.26;88.39;101038.78;5031512;28;46414;-69
2023/01/20 02:12:46;;;;;;;;;28.33;24.67;;;;;0.99;88.28;101003.69;5032524;28;45382;-68
2023/01/20 02:15:12;;;;;;;;;40.67;30.33;;;;;1.19;87.97;101044.69;5034721;28;45962;-68
2023/01/20 02:17:56;;;;;;;;;21.00;18.67;;;;;1.11;88.41;101048.88;5036075;28;45425;-68
2023/01/20 02:20:48;;;;;;;;;27.33;26.67;;;;;1.10;88.63;101049.69;5032713;28;45484;-68
2023/01/20 02:24:11;;;;;;;;;27.00;21.33;;;;;1.04;88.27;101046.13;5027533;28;45599;-66
2023/01/20 02:26:51;;;;;;;;;28.67;26.00;;;;;1.06;89.06;101047.88;5018838;28;45416;-68
2023/01/20 02:29:53;;;;;;;;;34.67;27.00;;;;;1.03;89.79;101049.56;5057459;28;45632;-71
2023/01/20 02:32:48;;;;;;;;;26.00;22.00;;;;;1.07;88.95;101047.91;5055656;28;46037;-71
2023/01/20 02:35:28;;;;;;;;;33.00;25.33;;;;;1.01;88.86;101034.81;5046418;28;46625;-70
2023/01/20 02:38:02;;;;;;;;;25.67;22.67;;;;;1.08;89.60;101051.41;5056177;28;45817;-70
2023/01/20 02:40:38;;;;;;;;;26.67;25.00;;;;;1.02;89.01;101034.84;5056208;28;45523;-70
2023/01/20 02:43:10;;;;;;;;;30.67;25.00;;;;;1.07;88.74;101047.91;5055768;28;46063;-70
2023/01/20 02:45:45;;;;;;;;;29.00;20.00;;;;;1.01;89.00;101040.00;5054464;28;45430;-71
2023/01/20 02:48:26;;;;;;;;;29.00;21.00;;;;;1.07;89.01;101045.31;5053466;28;45585;-70
2023/01/20 02:51:04;;;;;;;;;30.00;24.67;;;;;1.07;88.62;101047.91;5056159;28;45473;-70
2023/01/20 02:53:37;;;;;;;;;31.67;25.67;;;;;1.07;88.87;101047.91;5035614;28;46606;-71
2023/01/20 02:56:03;;;;;;;;;24.33;22.00;;;;;1.02;88.53;101047.81;5035421;28;45679;-70
2023/01/20 02:58:36;;;;;;;;;28.00;20.33;;;;;1.07;89.36;101054.81;5095350;27;45405;-71
2023/01/20 03:01:09;;;;;;;;;27.00;22.00;;;;;1.02;88.57;101046.97;5118455;27;45464;-70
2023/01/20 03:03:38;;;;;;;;;18.33;17.67;;;;;1.04;88.90;101056.50;5117472;27;45391;-70
2023/01/20 03:06:13;;;;;;;;;29.00;23.33;;;;;1.06;88.30;101058.25;5119029;27;45574;-70
2023/01/20 03:08:39;;;;;;;;;29.67;24.33;;;;;0.96;88.19;101047.69;5119144;27;45627;-70
2023/01/20 03:11:07;;;;;;;;;29.33;23.33;;;;;0.99;88.80;101058.13;5119131;27;45954;-70
2023/01/20 03:13:57;;;;;;;;;24.67;21.33;;;;;0.97;88.63;101049.44;5119009;27;45808;-71
2023/01/20 03:16:24;;;;;;;;;25.00;21.33;;;;;0.91;88.28;101046.72;5118962;27;45260;-71
2023/01/20 03:18:50;;;;;;;;;23.00;18.33;;;;;0.93;88.94;101057.09;5117353;27;45486;-71
2023/01/20 03:21:16;;;;;;;;;22.33;20.67;;;;;0.83;89.64;101049.16;5118748;27;45406;-71
2023/01/20 03:23:46;;;;;;;;;26.00;22.00;;;;;0.92;89.76;101057.97;5118760;27;45451;-71
2023/01/20 03:26:14;;;;;;;;;14.67;14.67;;;;;0.94;89.79;101067.50;5098008;27;45465;-71
2023/01/20 03:28:43;;;;;;;;;23.00;18.00;;;;;0.98;89.12;101065.88;5117054;27;45616;-70
2023/01/20 03:31:23;;;;;;;;;19.67;15.33;;;;;1.00;89.33;101062.47;5118995;27;45397;-71
2023/01/20 03:33:52;;;;;;;;;26.00;17.67;;;;;0.99;89.29;101059.84;5118619;27;45565;-71
2023/01/20 03:36:20;;;;;;;;;28.33;18.67;;;;;1.05;89.63;101075.53;5123347;27;45321;-71
2023/01/20 03:38:46;;;;;;;;;21.67;18.00;;;;;1.09;89.40;101072.19;5139471;27;45382;-70
2023/01/20 03:41:45;;;;;;;;;24.67;21.33;;;;;1.13;90.07;101084.34;5139470;27;45488;-70
2023/01/20 03:44:29;;;;;;;;;26.33;18.00;;;;;1.25;89.94;101077.66;5137878;27;45517;-71
2023/01/20 03:47:25;;;;;;;;;20.00;19.00;;;;;1.21;89.33;101059.44;5097340;27;45359;-70
2023/01/20 03:49:50;;;;;;;;;21.00;20.33;;;;;1.44;88.94;101079.81;5097952;27;45395;-71
2023/01/20 03:52:28;;;;;;;;;24.67;21.00;;;;;1.51;88.99;101089.47;5098300;27;45329;-70
2023/01/20 03:55:05;;;;;;;;;28.00;18.33;;;;;1.56;88.39;101081.75;5097787;27;46602;-71
2023/01/20 03:57:52;;;;;;;;;25.00;21.67;;;;;1.53;87.88;101067.00;5096313;27;45262;-71
2023/01/20 04:00:22;;;;;;;;;16.33;13.00;;;;;1.60;88.03;101073.19;5109197;27;45274;-71
2023/01/20 04:02:49;;;;;;;;;21.00;14.67;;;;;1.67;88.25;101077.66;5117817;27;45375;-71
2023/01/20 04:05:15;;;;;;;;;24.67;23.33;;;;;1.72;88.25;101088.97;5117058;27;45675;-70
2023/01/20 04:07:44;;;;;;;;;22.00;18.33;;;;;1.71;88.03;101063.00;5117560;27;45454;-71
2023/01/20 04:10:13;;;;;;;;;23.00;18.67;;;;;1.84;87.65;101077.09;5136697;27;45389;-71
2023/01/20 04:12:39;;;;;;;;;16.67;14.00;;;;;1.85;87.23;101076.25;5134579;27;45385;-71
2023/01/20 04:15:06;;;;;;;;;27.67;18.67;;;;;1.88;87.38;101077.16;5117659;27;46505;-72
2023/01/20 04:17:32;;;;;;;;;22.33;20.00;;;;;1.84;87.04;101067.56;5097699;27;45331;-71
2023/01/20 04:20:02;;;;;;;;;18.33;15.67;;;;;1.82;87.55;101056.28;5108428;27;45417;-71
2023/01/20 04:22:38;;;;;;;;;20.00;17.33;;;;;1.90;87.17;101064.22;5118397;27;45338;-70
2023/01/20 04:25:30;;;;;;;;;17.33;17.33;;;;;1.99;87.29;101077.38;5116962;27;45515;-71
2023/01/20 04:27:56;;;;;;;;;23.67;19.67;;;;;1.98;87.11;101064.38;5053821;28;45443;-70
2023/01/20 04:30:21;;;;;;;;;27.67;18.67;;;;;1.79;86.96;101032.00;5054631;28;45890;-71
2023/01/20 04:32:47;;;;;;;;;20.00;20.00;;;;;2.05;87.08;101069.69;5054011;28;45395;-71
2023/01/20 04:35:14;;;;;;;;;20.00;18.00;;;;;1.85;86.68;101032.13;5054444;28;47167;-71
2023/01/20 04:37:39;;;;;;;;;21.33;16.33;;;;;2.06;86.56;101057.56;5054453;28;45366;-71
2023/01/20 04:40:05;;;;;;;;;21.33;19.00;;;;;2.15;86.29;101069.81;5058093;28;45534;-71
2023/01/20 04:42:31;;;;;;;;;18.67;15.00;;;;;2.19;86.47;101071.63;5074829;28;45756;-71
2023/01/20 04:44:56;;;;;;;;;17.33;16.67;;;;;2.12;86.23;101059.38;5074221;28;46078;-71
2023/01/20 04:47:21;;;;;;;;;26.33;22.67;;;;;2.00;86.05;101032.34;5055662;28;45732;-71
2023/01/20 04:49:47;;;;;;;;;28.33;22.00;;;;;2.24;85.97;101081.25;5054231;28;45745;-71
2023/01/20 04:52:12;;;;;;;;;20.67;18.33;;;;;2.21;85.92;101070.81;5054620;28;45614;-71
2023/01/20 04:54:37;;;;;;;;;25.33;20.33;;;;;2.00;85.82;101045.34;5054060;28;45275;-70
2023/01/20 04:57:03;;;;;;;;;20.33;16.00;;;;;2.29;85.71;101090.84;5057099;28;45484;-71
2023/01/20 04:59:28;;;;;;;;;18.33;15.67;;;;;2.30;85.92;101095.22;5077976;27;45473;-70
2023/01/20 05:01:53;;;;;;;;;25.33;20.00;;;;;2.36;85.60;101093.56;5078140;27;45554;-71
2023/01/20 05:04:19;;;;;;;;;17.67;17.00;;;;;2.37;85.68;101094.47;5095005;27;47313;-71
2023/01/20 05:06:44;;;;;;;;;30.00;18.00;;;;;2.35;85.23;101088.34;5141873;27;45344;-71
2023/01/20 05:09:14;;;;;;;;;20.67;18.00;;;;;2.32;85.87;101093.50;5141958;27;45567;-71
2023/01/20 05:11:40;;;;;;;;;23.33;22.00;;;;;2.33;85.71;101096.13;5134450;27;45471;-71
2023/01/20 05:14:05;;;;;;;;;19.00;18.00;;;;;2.35;86.17;101094.44;5121197;27;46016;-71
2023/01/20 05:16:32;;;;;;;;;20.00;14.67;;;;;2.30;85.62;101072.69;5141822;27;45274;-71
2023/01/20 05:18:58;;;;;;;;;19.67;19.00;;;;;2.39;85.53;101100.56;5141319;27;45557;-71
2023/01/20 05:21:23;;;;;;;;;20.00;19.00;;;;;2.34;85.51;101084.00;5141683;27;45444;-71
2023/01/20 05:23:49;;;;;;;;;18.00;15.00;;;;;2.34;85.95;101089.19;5122093;27;45487;-71
2023/01/20 05:26:14;;;;;;;;;20.67;16.67;;;;;2.18;85.96;101062.09;5120890;27;45320;-71
2023/01/20 05:28:41;;;;;;;;;19.00;16.67;;;;;2.45;85.72;101108.44;5120997;27;45316;-71
2023/01/20 05:31:07;;;;;;;;;19.67;12.33;;;;;2.50;85.70;101108.50;5121899;27;45247;-71
2023/01/20 05:33:32;;;;;;;;;19.00;16.33;;;;;2.44;85.69;101099.78;5141281;27;45495;-72
2023/01/20 05:35:58;;;;;;;;;21.33;17.33;;;;;2.41;85.60;101097.13;5141371;27;45441;-72
2023/01/20 05:38:23;;;;;;;;;18.33;16.00;;;;;2.54;85.44;101112.91;5131718;27;45365;-72
2023/01/20 05:40:49;;;;;;;;;23.33;22.33;;;;;2.51;85.65;101108.53;5120917;27;45231;-72
2023/01/20 05:43:14;;;;;;;;;20.00;19.00;;;;;2.52;85.37;101101.63;5118542;27;46365;-72
2023/01/20 05:45:41;;;;;;;;;17.00;14.00;;;;;2.59;86.13;101124.28;5120449;27;45438;-72
2023/01/20 05:48:07;;;;;;;;;17.00;16.33;;;;;2.56;86.15;101116.44;5131926;27;45214;-72
2023/01/20 05:50:32;;;;;;;;;21.67;17.33;;;;;2.63;85.67;101127.78;5120773;27;45304;-72
2023/01/20 05:52:59;;;;;;;;;22.67;16.00;;;;;2.61;86.25;101130.34;5120231;27;47327;-72
2023/01/20 05:55:24;;;;;;;;;20.00;18.33;;;;;2.60;86.41;101118.22;5120394;27;45434;-72
2023/01/20 05:57:50;;;;;;;;;8.33;7.67;;;;;2.69;86.39;101135.69;5120149;27;45444;-72
2023/01/20 06:00:17;;;;;;;;;18.67;15.33;;;;;2.75;86.29;101138.38;5120386;27;45287;-72
2023/01/20 06:02:42;;;;;;;;;7.00;6.67;;;;;2.77;86.10;101132.38;5124351;27;46649;-72
2023/01/20 06:05:08;;;;;;;;;15.00;11.00;;;;;2.73;86.15;101133.16;5120010;27;45684;-73
2023/01/20 06:07:33;;;;;;;;;15.67;14.00;;;;;2.81;86.17;101137.63;5119672;27;45568;-72
2023/01/20 06:09:59;;;;;;;;;21.00;16.00;;;;;2.87;86.04;101148.97;5119578;27;45484;-72
2023/01/20 06:12:24;;;;;;;;;22.33;12.00;;;;;2.81;86.47;101138.47;5119876;27;46394;-72
2023/01/20 06:14:50;;;;;;;;;16.33;12.33;;;;;2.93;86.35;101153.38;5119414;27;45189;-72
2023/01/20 06:17:15;;;;;;;;;15.33;10.67;;;;;2.91;86.16;101144.69;5119748;27;45212;-72
2023/01/20 06:19:40;;;;;;;;;19.67;15.00;;;;;2.95;86.17;101152.56;5138463;27;45374;-72
2023/01/20 06:22:11;;;;;;;;;28.00;22.67;;;;;3.00;85.83;101154.38;5133788;27;45203;-72
2023/01/20 06:24:37;;;;;;;;;15.67;14.00;;;;;2.91;86.03;101129.09;5117360;27;45496;-72
2023/01/20 06:27:02;;;;;;;;;21.33;14.00;;;;;2.92;85.89;101128.22;5119778;27;45693;-72
2023/01/20 06:29:29;;;;;;;;;17.00;13.33;;;;;2.95;85.84;101134.34;5120007;27;45431;-72
2023/01/20 06:31:54;;;;;;;;;20.00;16.00;;;;;2.97;86.17;101142.19;5118809;27;46365;-71
2023/01/20 06:34:19;;;;;;;;;13.67;11.67;;;;;2.96;85.82;101138.72;5130624;27;45512;-71
2023/01/20 06:36:45;;;;;;;;;19.67;14.00;;;;;2.94;85.76;101136.94;5133079;27;45338;-72
2023/01/20 06:39:10;;;;;;;;;14.00;10.33;;;;;2.65;85.86;101087.97;5119858;27;45296;-73
2023/01/20 06:41:35;;;;;;;;;21.00;15.00;;;;;2.94;86.03;101143.00;5119414;27;47015;-73
2023/01/20 06:44:01;;;;;;;;;20.33;15.67;;;;;2.96;85.91;101143.91;5118953;27;45461;-73
2023/01/20 06:46:26;;;;;;;;;15.67;13.00;;;;;3.03;85.81;101159.59;5119597;27;45253;-73
2023/01/20 06:48:57;;;;;;;;;12.00;12.00;;;;;2.98;85.87;101156.94;5114067;27;45309;-73
2023/01/20 06:51:22;;;;;;;;;10.33;5.00;;;;;2.87;85.91;101138.56;5098518;27;47336;-73
2023/01/20 06:53:48;;;;;;;;;16.00;16.00;;;;;3.00;86.20;101154.38;5098265;27;45310;-73
2023/01/20 06:56:14;;;;;;;;;18.33;15.00;;;;;3.03;85.89;101165.69;5098696;27;45523;-73
2023/01/20 06:58:41;;;;;;;;;20.00;17.33;;;;;3.04;85.53;101164.84;5098848;27;45523;-73
2023/01/20 07:01:10;;;;;;;;;18.50;12.00;;;;;2.95;86.09;101155.16;5101923;27;46263;-73
2023/01/20 07:03:36;;;;;;;;;19.00;15.00;;;;;3.03;86.30;101165.69;5119222;27;45260;-73
2023/01/20 07:06:13;;;;;;;;;27.00;21.00;;;;;3.01;85.93;101164.78;5130087;27;45294;-73
2023/01/20 07:08:38;;;;;;;;;20.33;17.33;;;;;3.06;85.68;101168.31;5124196;27;45776;-73
2023/01/20 07:11:03;;;;;;;;;20.33;17.00;;;;;3.01;86.21;101167.41;5118497;27;45601;-73
2023/01/20 07:13:29;;;;;;;;;17.67;14.00;;;;;2.95;85.75;101159.50;5118873;27;45283;-74
2023/01/20 07:15:54;;;;;;;;;23.67;17.67;;;;;2.91;85.80;101162.91;5119340;27;45389;-74
2023/01/20 07:18:19;;;;;;;;;22.67;17.67;;;;;2.97;85.62;101174.25;5118265;27;45225;-74
2023/01/20 07:20:45;;;;;;;;;21.33;18.67;;;;;2.97;85.67;101176.84;5122063;27;45772;-73
2023/01/20 07:23:10;;;;;;;;;43.33;36.00;;;;;2.97;86.00;101189.88;5139512;27;45389;-73
2023/01/20 07:25:36;;;;;;;;;32.67;24.00;;;;;2.99;86.25;101197.69;5117983;27;45502;-74
2023/01/20 07:28:03;;;;;;;;;47.33;40.33;;;;;2.99;86.03;101196.81;5119129;27;45212;-74
2023/01/20 07:30:29;;;;;;;;;25.33;22.67;;;;;2.94;86.42;101194.16;5118404;27;46623;-74
2023/01/20 07:32:54;;;;;;;;;27.00;24.00;;;;;2.97;86.50;101197.66;5118742;27;45389;-74
2023/01/20 07:35:19;;;;;;;;;25.33;19.33;;;;;2.95;86.27;101194.19;5118080;27;45359;-73
2023/01/20 07:37:45;;;;;;;;;27.33;24.33;;;;;2.98;86.37;101201.16;5118714;27;45698;-73
2023/01/20 07:40:10;;;;;;;;;21.67;21.67;;;;;3.06;86.64;101211.69;5139276;27;47215;-73
2023/01/20 07:42:37;;;;;;;;;18.33;16.33;;;;;3.09;86.42;101214.31;5124643;27;45353;-73
2023/01/20 07:45:03;;;;;;;;;20.67;18.33;;;;;2.99;86.56;101195.09;5117257;27;45349;-72
2023/01/20 07:47:28;;;;;;;;;24.33;21.33;;;;;3.11;86.46;101220.44;5117205;27;45338;-72
2023/01/20 07:49:53;;;;;;;;;23.33;20.33;;;;;3.14;86.18;101210.09;5115873;27;45471;-72
2023/01/20 07:52:19;;;;;;;;;20.67;15.67;;;;;3.10;86.92;101219.56;5115594;27;45464;-72
2023/01/20 07:54:44;;;;;;;;;18.33;18.00;;;;;2.94;87.04;101189.81;5118469;27;45247;-73
2023/01/20 07:57:09;;;;;;;;;20.67;16.33;;;;;3.21;86.19;101232.75;5118289;27;45375;-73
2023/01/20 07:59:35;;;;;;;;;16.33;12.67;;;;;3.13;86.80;101223.94;5116295;27;47175;-72
2023/01/20 08:02:00;;;;;;;;;25.67;20.67;;;;;3.25;86.37;101247.56;5116569;27;45378;-73
2023/01/20 08:04:25;;;;;;;;;24.00;15.67;;;;;3.28;86.03;101245.00;5116437;27;45302;-73
2023/01/20 08:06:51;;;;;;;;;21.33;19.67;;;;;3.30;86.32;101239.81;5118555;27;45430;-73
2023/01/20 08:09:16;;;;;;;;;27.67;19.00;;;;;3.31;86.66;101245.03;5116979;27;46414;-73
2023/01/20 08:11:41;;;;;;;;;23.67;17.33;;;;;3.30;85.95;101239.81;5118264;27;45321;-73
2023/01/20 08:14:07;;;;;;;;;20.67;17.33;;;;;3.35;85.79;101252.88;5118158;27;45484;-73
2023/01/20 08:16:32;;;;;;;;;19.00;17.67;;;;;3.40;86.25;101265.13;5116205;27;45448;-73
2023/01/20 08:18:57;;;;;;;;;19.00;15.33;;;;;3.45;85.56;101258.25;5115641;27;46590;-73
2023/01/20 08:21:24;;;;;;;;;22.00;18.67;;;;;3.45;85.96;101263.44;5118208;27;45374;-72
2023/01/20 08:23:50;;;;;;;;;23.67;20.00;;;;;3.47;86.53;101273.88;5118336;27;45518;-72
2023/01/20 08:26:16;;;;;;;;;23.33;17.00;;;;;3.46;86.14;101264.34;5118157;27;45278;-73
2023/01/20 08:28:41;;;;;;;;;19.33;16.00;;;;;3.52;86.38;101264.44;5116286;27;47391;-73
2023/01/20 08:31:10;;;;;;;;;27.00;21.00;;;;;3.55;86.34;101272.28;5117239;27;45286;-73
2023/01/20 08:33:36;;;;;;;;;19.67;14.33;;;;;3.60;86.16;101275.84;5121855;27;45323;-74
2023/01/20 08:36:07;;;;;;;;;20.33;18.33;;;;;3.57;85.97;101261.88;5134340;27;45354;-73
2023/01/20 08:38:33;;;;;;;;;15.67;13.33;;;;;3.61;85.66;101271.50;5132372;27;47164;-73
2023/01/20 08:40:59;;;;;;;;;16.00;12.00;;;;;3.58;85.83;101263.66;5120823;27;45371;-73
2023/01/20 08:43:24;;;;;;;;;18.67;13.33;;;;;3.72;85.70;101282.03;5121522;27;45405;-72
2023/01/20 08:46:00;;;;;;;;;17.33;14.00;;;;;3.76;85.38;101273.44;5120981;27;45488;-73
2023/01/20 08:48:26;;;;;;;;;14.67;14.67;;;;;3.73;85.49;101271.69;5120645;27;46448;-73
2023/01/20 08:50:52;;;;;;;;;22.00;14.33;;;;;3.83;85.71;101283.97;5129788;27;45618;-73
2023/01/20 08:53:17;;;;;;;;;16.67;14.00;;;;;3.86;85.41;101284.84;5142247;27;45484;-73
2023/01/20 08:55:43;;;;;;;;;17.00;14.33;;;;;3.96;85.07;101284.13;5142262;27;45355;-73
2023/01/20 08:58:08;;;;;;;;;22.00;16.00;;;;;3.92;85.04;101278.00;5119274;27;45403;-72
2023/01/20 09:00:33;;;;;;;;;18.67;15.67;;;;;4.02;85.24;101294.63;5120976;27;45377;-72
2023/01/20 09:02:59;;;;;;;;;15.33;12.67;;;;;4.01;84.88;101285.94;5121161;27;45456;-72
2023/01/20 09:05:24;;;;;;;;;18.33;17.67;;;;;4.05;84.76;101292.03;5119728;27;45339;-72
2023/01/20 09:07:49;;;;;;;;;18.00;11.67;;;;;4.04;84.69;101282.50;5130686;27;45465;-73
2023/01/20 09:10:15;;;;;;;;;19.00;15.67;;;;;4.22;84.44;101302.69;5100169;27;45417;-72
2023/01/20 09:12:40;;;;;;;;;24.00;21.67;;;;;4.19;84.73;101290.50;5100483;27;45415;-73
2023/01/20 09:15:06;;;;;;;;;14.67;14.67;;;;;4.14;83.89;101276.53;5104588;27;45453;-72
2023/01/20 09:17:34;;;;;;;;;15.33;15.33;;;;;4.22;84.34;101292.25;5120896;27;45427;-73
2023/01/20 09:19:59;;;;;;;;;22.67;16.33;;;;;4.32;84.44;101295.88;5119921;27;45477;-72
2023/01/20 09:22:24;;;;;;;;;17.00;12.00;;;;;4.38;84.13;101295.06;5120815;27;45385;-73
2023/01/20 09:24:50;;;;;;;;;21.33;14.33;;;;;4.32;83.96;101286.31;5119036;27;45314;-73
2023/01/20 09:27:15;;;;;;;;;22.00;20.33;;;;;4.43;83.67;101299.47;5116400;27;46155;-73
2023/01/20 09:29:40;;;;;;;;;21.33;16.33;;;;;4.41;83.53;101295.09;5114116;27;45394;-73
2023/01/20 09:32:05;;;;;;;;;23.33;17.33;;;;;4.48;83.21;101299.53;5120130;27;45664;-72
2023/01/20 09:34:31;;;;;;;;;18.33;15.33;;;;;4.51;82.76;101307.38;5118800;27;45563;-73
2023/01/20 09:45:34;;;;;;;;;17.67;13.33;;;;;4.63;82.48;101322.28;5120432;27;45423;-72
2023/01/20 09:54:24;;;;;;;;;22.67;19.67;;;;;4.62;82.02;101304.88;5119792;27;45424;-70
2023/01/20 09:56:54;;;;;;;;;21.00;20.33;;;;;4.77;81.39;101312.00;5120644;27;45319;-70
2023/01/20 09:59:36;;;;;;;;;17.67;16.33;;;;;4.86;82.08;101327.75;5120196;27;47169;-70
2023/01/20 10:02:12;;;;;;;;;21.00;17.00;;;;;4.89;81.34;101317.34;5119632;27;45494;-71
2023/01/20 10:04:44;;;;;;;;;31.00;19.00;;;;;4.96;81.61;101318.28;5122965;27;46094;-71
2023/01/20 10:07:23;;;;;;;;;22.33;17.00;;;;;5.08;81.75;101328.81;5141070;27;45407;-71
2023/01/20 10:09:56;;;;;;;;;20.33;17.00;;;;;5.14;81.37;101338.44;5140602;27;46404;-72
2023/01/20 10:12:36;;;;;;;;;14.00;14.00;;;;;5.14;81.11;101325.41;5140879;27;45492;-71
2023/01/20 10:15:12;;;;;;;;;20.00;18.00;;;;;5.25;80.48;101346.38;5113249;27;45895;-71
2023/01/20 10:17:54;;;;;;;;;23.33;22.00;;;;;5.27;81.13;101350.78;5117754;27;45519;-71
2023/01/20 10:20:39;;;;;;;;;18.33;13.33;;;;;5.33;81.05;101336.88;5118962;27;46026;-71
2023/01/20 10:23:13;;;;;;;;;17.33;14.33;;;;;5.39;80.61;101342.16;5130430;27;45422;-71
2023/01/20 10:25:41;;;;;;;;;18.33;14.33;;;;;5.51;80.64;101346.59;5140036;27;45479;-68
2023/01/20 10:28:27;;;;;;;;;21.33;13.67;;;;;5.62;80.59;101349.28;5139977;27;45476;-69
2023/01/20 10:30:59;;;;;;;;;18.67;18.33;;;;;5.45;80.03;101310.88;5125532;27;46461;-70
2023/01/20 10:33:38;;;;;;;;;20.67;14.33;;;;;5.81;80.13;101351.19;5115759;27;45451;-70
2023/01/20 10:36:11;;;;;;;;;21.67;14.33;;;;;5.78;79.05;101330.25;5118816;27;45467;-66
2023/01/20 10:39:01;;;;;;;;;15.67;13.33;;;;;5.97;79.21;101357.41;5119107;27;45485;-67
2023/01/20 10:41:30;;;;;;;;;21.00;19.33;;;;;6.09;79.06;101361.84;5103360;27;46789;-67
2023/01/20 10:43:57;;;;;;;;;17.67;13.67;;;;;6.13;78.20;101362.72;5117713;27;45511;-69
2023/01/20 10:46:37;;;;;;;;;21.33;16.00;;;;;6.16;77.74;101365.34;5118806;27;45386;-69
2023/01/20 10:49:15;;;;;;;;;24.00;17.00;;;;;6.20;79.03;101352.31;5119083;27;45286;-70
2023/01/20 10:51:59;;;;;;;;;21.67;14.00;;;;;6.27;78.55;101361.94;5118662;27;45450;-69
2023/01/20 10:54:48;;;;;;;;;16.67;15.00;;;;;6.28;77.28;101355.81;5118483;27;45310;-69
2023/01/20 10:57:14;;;;;;;;;14.33;14.00;;;;;6.31;77.33;101361.94;5118746;27;45417;-69
2023/01/20 10:59:44;;;;;;;;;16.00;16.00;;;;;6.30;77.06;101355.81;5129431;27;45568;-69
2023/01/20 11:02:18;;;;;;;;;28.33;21.67;;;;;6.27;77.83;101354.09;5126425;27;47240;-69
2023/01/20 11:04:48;;;;;;;;;27.67;24.00;;;;;6.32;77.22;101361.06;5139138;27;45396;-69
2023/01/20 11:07:18;;;;;;;;;17.33;14.00;;;;;6.34;78.54;101335.81;5139154;27;45476;-69
2023/01/20 11:09:46;;;;;;;;;14.33;13.00;;;;;6.49;77.57;101353.28;5139172;27;45689;-71
2023/01/20 11:12:16;;;;;;;;;19.00;15.33;;;;;6.52;77.98;101354.19;5121902;27;45685;-69
2023/01/20 11:14:43;;;;;;;;;15.00;12.00;;;;;6.53;76.86;101353.31;5132994;27;45626;-69
2023/01/20 11:17:16;;;;;;;;;18.00;13.67;;;;;6.54;77.42;101348.97;5118880;27;45465;-69
2023/01/20 11:19:54;;;;;;;;;14.33;10.00;;;;;6.58;78.04;101322.81;5118262;27;45449;-69
2023/01/20 11:22:30;;;;;;;;;15.67;10.67;;;;;6.73;77.21;101344.66;5118198;27;46390;-69
2023/01/20 11:24:58;;;;;;;;;17.00;13.33;;;;;6.79;75.86;101348.16;5118076;27;45396;-67
2023/01/20 11:27:28;;;;;;;;;10.00;7.00;;;;;6.84;76.14;101342.94;5118301;27;45967;-67
2023/01/20 11:30:02;;;;;;;;;10.33;8.67;;;;;6.84;76.56;101339.44;5118370;27;45349;-67
2023/01/20 11:32:38;;;;;;;;;11.67;10.00;;;;;6.93;75.83;101349.94;5124171;27;46209;-67
2023/01/20 11:35:24;;;;;;;;;16.00;10.33;;;;;6.96;76.72;101345.56;5117763;27;45802;-66
2023/01/20 11:37:50;;;;;;;;;12.33;9.67;;;;;7.03;75.90;101341.25;5118180;27;45459;-68
2023/01/20 11:40:21;;;;;;;;;12.00;10.00;;;;;7.12;76.46;101343.00;5124873;27;45369;-69